createdAt,value
2022-11-24T00:00:21.373Z,34.63
2022-11-24T00:02:48.422Z,35.53
2022-11-24T00:05:15.511Z,35.00
2022-11-24T00:07:42.562Z,33.58
2022-11-24T00:10:10.481Z,35.67
2022-11-24T00:12:37.495Z,34.72
2022-11-24T00:15:04.835Z,35.42
2022-11-24T00:17:32.854Z,36.80
2022-11-24T00:19:59.900Z,36.47
2022-11-24T00:22:26.872Z,37.38
2022-11-24T00:24:53.873Z,35.80
2022-11-24T00:27:20.893Z,35.35
2022-11-24T00:29:47.984Z,36.75
2022-11-24T00:32:14.939Z,38.25
2022-11-24T00:34:42.128Z,36.70
2022-11-24T00:37:09.186Z,36.33
2022-11-24T00:39:36.155Z,36.35
2022-11-24T00:42:03.236Z,37.40
2022-11-24T00:44:30.334Z,36.53
2022-11-24T00:46:57.556Z,37.80
2022-11-24T00:49:24.696Z,37.83
2022-11-24T00:51:51.938Z,37.83
2022-11-24T00:54:19.046Z,38.47
2022-11-24T00:56:46.148Z,38.13
2022-11-24T00:59:13.173Z,35.92
2022-11-24T01:01:40.418Z,36.95
2022-11-24T01:04:07.441Z,35.03
2022-11-24T01:06:36.730Z,36.35
2022-11-24T01:09:04.666Z,35.90
2022-11-24T01:11:55.293Z,38.22
2022-11-24T01:14:24.599Z,36.30
2022-11-24T01:16:51.985Z,38.05
2022-11-24T01:19:19.587Z,39.05
2022-11-24T01:21:47.599Z,36.25
2022-11-24T01:24:15.962Z,38.03
2022-11-24T01:26:43.078Z,37.42
2022-11-24T01:29:12.402Z,38.03
2022-11-24T01:31:39.987Z,36.20
2022-11-24T01:34:07.035Z,37.47
2022-11-24T01:36:34.497Z,35.88
2022-11-24T01:39:01.609Z,35.92
2022-11-24T01:41:28.818Z,33.40
2022-11-24T01:43:57.572Z,31.00
2022-11-24T01:46:43.849Z,30.02
2022-11-24T01:49:23.167Z,30.30
2022-11-24T01:51:55.629Z,29.10
2022-11-24T01:54:36.509Z,31.25
2022-11-24T01:57:22.142Z,29.30
2022-11-24T01:59:56.059Z,31.58
2022-11-24T02:02:25.026Z,31.77
2022-11-24T02:04:53.045Z,30.08
2022-11-24T02:07:20.365Z,30.30
2022-11-24T02:09:54.811Z,31.02
2022-11-24T02:12:27.166Z,29.38
2022-11-24T02:14:56.107Z,31.23
2022-11-24T02:17:23.584Z,29.67
2022-11-24T02:20:00.437Z,30.48
2022-11-24T02:22:45.143Z,31.42
2022-11-24T02:25:21.192Z,29.38
2022-11-24T02:27:53.727Z,30.83
2022-11-24T02:32:48.130Z,28.35
2022-11-24T02:35:15.751Z,29.73
2022-11-24T02:37:43.015Z,29.13
2022-11-24T02:40:10.802Z,28.05
2022-11-24T02:42:44.480Z,29.10
2022-11-24T02:45:12.857Z,29.15
2022-11-24T02:47:39.873Z,30.67
2022-11-24T02:50:07.302Z,27.95
2022-11-24T02:52:34.337Z,27.67
2022-11-24T02:55:01.323Z,28.20
2022-11-24T02:57:28.320Z,29.65
2022-11-24T02:59:55.306Z,30.10
2022-11-24T03:02:22.975Z,27.42
2022-11-24T03:04:50.049Z,28.00
2022-11-24T03:07:17.131Z,29.55
2022-11-24T03:09:44.168Z,29.55
2022-11-24T03:12:11.209Z,26.98
2022-11-24T03:14:38.191Z,27.98
2022-11-24T03:17:05.271Z,27.17
2022-11-24T03:19:33.117Z,26.75
2022-11-24T03:22:00.447Z,26.98
2022-11-24T03:24:27.507Z,26.60
2022-11-24T03:26:54.498Z,27.42
2022-11-24T03:29:22.221Z,29.83
2022-11-24T03:31:49.459Z,29.90
2022-11-24T03:34:16.525Z,30.75
2022-11-24T03:36:43.535Z,29.67
2022-11-24T03:39:10.582Z,29.23
2022-11-24T03:41:37.715Z,28.88
2022-11-24T03:44:05.058Z,29.33
2022-11-24T03:46:32.128Z,30.55
2022-11-24T03:48:59.367Z,29.70
2022-11-24T03:51:26.337Z,29.65
2022-11-24T03:53:53.332Z,31.52
2022-11-24T03:56:20.667Z,30.75
2022-11-24T03:58:47.669Z,29.10
2022-11-24T04:01:14.777Z,28.58
2022-11-24T04:03:41.773Z,26.90
2022-11-24T04:06:08.859Z,29.75
2022-11-24T04:08:35.859Z,29.90
2022-11-24T04:11:03.346Z,28.67
2022-11-24T04:13:30.314Z,29.13
2022-11-24T04:15:57.330Z,29.40
2022-11-24T04:18:24.514Z,29.77
2022-11-24T04:20:52.422Z,30.17
2022-11-24T04:23:19.540Z,30.02
2022-11-24T04:25:46.710Z,29.15
2022-11-24T04:28:13.677Z,30.20
2022-11-24T04:30:44.707Z,29.40
2022-11-24T04:33:12.604Z,28.20
2022-11-24T04:35:39.631Z,27.33
2022-11-24T04:38:06.657Z,26.98
2022-11-24T04:40:33.684Z,27.60
2022-11-24T04:43:00.687Z,27.60
2022-11-24T04:45:27.701Z,28.17
2022-11-24T04:47:54.682Z,30.15
2022-11-24T04:50:22.015Z,29.13
2022-11-24T04:52:49.048Z,30.88
2022-11-24T04:55:16.110Z,29.90
2022-11-24T04:57:43.062Z,28.40
2022-11-24T05:00:11.748Z,29.25
2022-11-24T05:02:39.062Z,30.42
2022-11-24T05:05:07.613Z,28.77
2022-11-24T05:07:35.047Z,29.00
2022-11-24T05:10:21.257Z,27.20
2022-11-24T05:25:07.741Z,34.42
2022-11-24T05:27:34.843Z,30.45
2022-11-24T05:30:01.825Z,29.67
2022-11-24T05:32:28.769Z,30.30
2022-11-24T05:34:56.789Z,29.85
2022-11-24T05:37:25.637Z,25.58
2022-11-24T05:39:54.593Z,25.35
2022-11-24T05:42:46.173Z,28.02
2022-11-24T05:45:20.926Z,26.20
2022-11-24T05:47:50.508Z,24.92
2022-11-24T05:50:20.486Z,24.95
2022-11-24T05:52:49.176Z,23.92
2022-11-24T05:55:28.283Z,29.83
2022-11-24T05:58:03.927Z,25.92
2022-11-24T06:00:32.765Z,25.92
2022-11-24T06:03:01.009Z,27.48
2022-11-24T06:05:29.907Z,27.25
2022-11-24T06:07:58.603Z,28.02
2022-11-24T06:10:25.707Z,28.45
2022-11-24T06:12:53.242Z,27.05
2022-11-24T06:15:20.218Z,29.35
2022-11-24T06:17:55.217Z,31.77
2022-11-24T06:20:28.363Z,28.15
2022-11-24T06:23:00.743Z,30.15
2022-11-24T06:25:29.337Z,28.27
2022-11-24T06:27:56.543Z,29.48
2022-11-24T06:30:23.455Z,28.48
2022-11-24T06:32:55.346Z,27.40
2022-11-24T06:35:22.598Z,29.35
2022-11-24T06:37:49.571Z,29.30
2022-11-24T06:40:17.030Z,29.55
2022-11-24T06:42:51.633Z,28.77
2022-11-24T06:45:18.816Z,30.35
2022-11-24T06:47:45.723Z,28.75
2022-11-24T06:50:12.631Z,27.98
2022-11-24T06:52:39.539Z,26.25
2022-11-24T06:55:07.439Z,27.27
2022-11-24T06:57:35.230Z,26.42
2022-11-24T07:00:07.852Z,27.75
2022-11-24T07:02:34.791Z,28.27
2022-11-24T07:05:01.706Z,26.90
2022-11-24T07:07:28.699Z,27.48
2022-11-24T07:09:55.715Z,27.98
2022-11-24T07:12:24.212Z,27.90
2022-11-24T07:14:51.132Z,26.42
2022-11-24T07:17:18.028Z,26.85
2022-11-24T07:19:45.112Z,27.58
2022-11-24T07:22:12.047Z,28.23
2022-11-24T07:24:39.026Z,26.60
2022-11-24T07:27:06.013Z,26.98
2022-11-24T07:29:32.964Z,26.90
2022-11-24T07:32:05.288Z,28.60
2022-11-24T07:34:33.115Z,30.27
2022-11-24T07:37:00.204Z,29.85
2022-11-24T07:39:27.113Z,28.63
2022-11-24T07:41:53.966Z,28.02
2022-11-24T07:44:20.975Z,27.55
2022-11-24T07:46:50.022Z,26.83
2022-11-24T07:49:17.995Z,26.42
2022-11-24T07:51:45.826Z,28.92
2022-11-24T07:54:12.804Z,26.83
2022-11-24T07:56:39.777Z,26.23
2022-11-24T07:59:06.904Z,26.63
2022-11-24T08:01:34.028Z,26.13
2022-11-24T08:04:02.497Z,27.63
2022-11-24T08:06:36.254Z,26.67
2022-11-24T08:09:07.697Z,28.98
2022-11-24T08:11:34.794Z,26.95
2022-11-24T08:14:01.759Z,26.55
2022-11-24T08:16:28.771Z,27.55
2022-11-24T08:18:56.600Z,26.05
2022-11-24T08:21:24.744Z,25.80
2022-11-24T08:23:58.560Z,26.48
2022-11-24T08:26:26.333Z,26.38
2022-11-24T08:28:57.472Z,26.50
2022-11-24T08:31:34.041Z,26.95
2022-11-24T08:34:03.706Z,27.33
2022-11-24T08:36:31.533Z,26.38
2022-11-24T08:39:00.401Z,27.98
2022-11-24T08:41:29.067Z,27.55
2022-11-24T08:43:56.561Z,27.83
2022-11-24T08:46:24.015Z,27.27
2022-11-24T08:48:54.120Z,26.25
2022-11-24T08:51:25.885Z,29.35
2022-11-24T08:54:01.583Z,26.77
2022-11-24T08:56:31.581Z,29.58
2022-11-24T08:58:59.261Z,31.42
2022-11-24T09:01:27.609Z,28.95
2022-11-24T09:03:55.289Z,25.77
2022-11-24T09:06:27.188Z,25.98
2022-11-24T09:08:55.714Z,27.55
2022-11-24T09:11:24.218Z,26.77
2022-11-24T09:13:51.794Z,26.08
2022-11-24T09:16:23.543Z,26.05
2022-11-24T09:19:17.056Z,26.90
2022-11-24T09:24:11.389Z,28.67
2022-11-24T09:26:43.015Z,27.73
2022-11-24T09:29:13.668Z,28.80
2022-11-24T09:31:41.006Z,26.92
2022-11-24T09:34:14.828Z,25.33
2022-11-24T09:36:42.719Z,25.92
2022-11-24T09:39:11.233Z,26.58
2022-11-24T09:42:46.027Z,27.77
2022-11-24T09:48:41.709Z,26.25
2022-11-24T09:51:14.987Z,26.13
2022-11-24T09:54:17.173Z,28.50
2022-11-24T09:56:46.395Z,28.48
2022-11-24T09:59:21.134Z,27.90
2022-11-24T10:01:50.017Z,27.02
2022-11-24T10:04:39.190Z,27.58
2022-11-24T10:07:14.567Z,28.23
2022-11-24T10:10:12.572Z,26.58
2022-11-24T10:13:00.859Z,24.73
2022-11-24T10:15:52.547Z,27.48
2022-11-24T10:19:00.416Z,30.05
2022-11-24T10:22:27.175Z,27.80
2022-11-24T10:25:26.201Z,27.50
2022-11-24T10:28:15.494Z,26.42
2022-11-24T10:30:43.879Z,26.55
2022-11-24T10:33:30.013Z,27.10
2022-11-24T10:36:15.117Z,30.23
2022-11-24T10:39:03.034Z,29.38
2022-11-24T10:42:00.655Z,26.88
2022-11-24T10:44:27.645Z,27.70
2022-11-24T10:46:54.936Z,31.00
2022-11-24T10:49:31.018Z,31.08
2022-11-24T10:52:16.555Z,30.52
2022-11-24T10:55:05.257Z,30.10
2022-11-24T10:57:38.869Z,31.27
2022-11-24T11:00:26.102Z,31.90
2022-11-24T11:03:32.447Z,31.35
2022-11-24T11:06:15.386Z,29.45
2022-11-24T11:08:42.311Z,29.85
2022-11-24T11:11:27.264Z,32.75
2022-11-24T11:14:03.863Z,30.13
2022-11-24T11:16:43.504Z,28.63
2022-11-24T11:19:49.314Z,29.25
2022-11-24T11:22:32.045Z,27.08
2022-11-24T11:25:10.868Z,27.45
2022-11-24T11:27:39.664Z,27.73
2022-11-24T11:36:18.827Z,29.13
2022-11-24T11:38:48.464Z,30.58
2022-11-24T11:41:30.599Z,30.98
2022-11-24T11:44:38.577Z,28.73
2022-11-24T11:47:25.603Z,31.77
2022-11-24T11:49:53.191Z,29.98
2022-11-24T11:52:32.225Z,31.10
2022-11-24T11:55:35.884Z,29.80
2022-11-24T12:01:27.972Z,27.85
2022-11-24T12:04:04.964Z,29.80
2022-11-24T12:07:23.510Z,30.25
2022-11-24T12:10:30.672Z,30.52
2022-11-24T12:13:30.308Z,31.65
2022-11-24T12:16:30.882Z,30.98
2022-11-24T12:19:12.637Z,30.60
2022-11-24T12:22:11.275Z,32.28
2022-11-24T12:24:55.934Z,32.45
2022-11-24T12:27:41.191Z,32.05
2022-11-24T12:30:13.668Z,37.03
2022-11-24T12:33:02.170Z,37.28
2022-11-24T12:35:54.408Z,33.40
2022-11-24T12:39:07.922Z,35.95
2022-11-24T12:41:49.754Z,39.70
2022-11-24T12:44:39.567Z,38.70
2022-11-24T12:47:27.707Z,35.08
2022-11-24T12:50:10.391Z,31.75
2022-11-24T12:52:55.596Z,31.70
2022-11-24T12:55:27.592Z,32.72
2022-11-24T12:58:22.839Z,34.30
2022-11-24T13:01:17.119Z,51.47
2022-11-24T13:04:05.142Z,42.22
2022-11-24T13:06:56.675Z,36.67
2022-11-24T13:09:26.397Z,38.33
2022-11-24T13:12:07.958Z,38.22
2022-11-24T13:14:39.493Z,130.38
2022-11-24T13:20:20.509Z,45.22
2022-11-24T13:22:53.602Z,32.78
2022-11-24T13:25:28.792Z,34.40
2022-11-24T13:28:06.446Z,35.30
2022-11-24T13:30:36.109Z,32.88
2022-11-24T13:33:28.012Z,32.65
2022-11-24T13:36:07.818Z,31.88
2022-11-24T13:38:51.438Z,31.42
2022-11-24T13:41:33.603Z,32.38
2022-11-24T13:44:15.733Z,33.20
2022-11-24T13:47:06.248Z,33.28
2022-11-24T13:49:48.884Z,30.23
2022-11-24T13:52:42.819Z,31.48
2022-11-24T13:55:12.528Z,28.77
2022-11-24T13:57:45.930Z,29.70
2022-11-24T14:00:58.474Z,33.75
2022-11-24T14:03:55.383Z,29.48
2022-11-24T14:06:59.011Z,29.25
2022-11-24T14:09:39.776Z,33.63
2022-11-24T14:12:21.198Z,32.13
2022-11-24T14:14:51.737Z,31.85
2022-11-24T14:17:20.077Z,33.67
2022-11-24T14:19:51.423Z,34.13
2022-11-24T14:22:24.246Z,32.75
2022-11-24T14:25:02.677Z,33.92
2022-11-24T14:27:39.107Z,34.65
2022-11-24T14:30:13.364Z,31.65
2022-11-24T14:32:53.041Z,28.70
2022-11-24T14:35:28.963Z,28.92
2022-11-24T14:37:56.562Z,30.58
2022-11-24T14:40:53.548Z,30.27
2022-11-24T14:43:32.035Z,28.63
2022-11-24T14:46:01.695Z,29.05
2022-11-24T14:48:37.334Z,30.13
2022-11-24T14:51:30.595Z,29.73
2022-11-24T14:54:13.622Z,29.70
2022-11-24T14:56:40.947Z,34.45
2022-11-24T14:59:27.520Z,34.13
2022-11-24T15:01:55.061Z,33.45
2022-11-24T15:05:02.234Z,41.20
2022-11-24T15:07:29.780Z,33.92
2022-11-24T15:10:03.765Z,32.63
2022-11-24T15:12:40.748Z,32.13
2022-11-24T15:15:22.610Z,32.80
2022-11-24T15:18:37.233Z,32.40
2022-11-24T15:21:04.688Z,33.22
2022-11-24T15:23:36.994Z,32.50
2022-11-24T15:26:03.888Z,33.60
2022-11-24T15:28:32.021Z,36.08
2022-11-24T15:31:13.813Z,36.03
2022-11-24T15:33:42.253Z,36.58
2022-11-24T15:36:09.372Z,35.95
2022-11-24T15:38:36.392Z,33.08
2022-11-24T15:41:20.835Z,33.30
2022-11-24T15:43:48.166Z,33.15
2022-11-24T15:46:16.058Z,38.67
2022-11-24T15:48:43.070Z,34.30
2022-11-24T15:51:14.868Z,34.47
2022-11-24T15:53:54.145Z,35.42
2022-11-24T15:56:31.359Z,34.55
2022-11-24T15:58:58.513Z,33.30
2022-11-24T16:01:31.573Z,36.05
2022-11-24T16:03:58.597Z,35.03
2022-11-24T16:06:25.818Z,36.45
2022-11-24T16:08:55.821Z,35.95
2022-11-24T16:11:23.396Z,37.30
2022-11-24T16:13:53.223Z,40.90
2022-11-24T16:16:23.081Z,42.55
2022-11-24T16:18:50.630Z,39.53
2022-11-24T16:21:17.848Z,36.30
2022-11-24T16:23:45.639Z,35.15
2022-11-24T16:26:14.908Z,37.08
2022-11-24T16:28:42.881Z,48.25
2022-11-24T16:31:09.932Z,42.47
2022-11-24T16:33:40.618Z,37.95
2022-11-24T16:36:08.595Z,35.80
2022-11-24T16:38:35.637Z,36.00
2022-11-24T16:41:02.606Z,35.85
2022-11-24T16:43:30.083Z,36.83
2022-11-24T16:46:09.044Z,44.20
2022-11-24T16:48:37.146Z,40.70
2022-11-24T16:51:11.901Z,45.10
2022-11-24T16:53:39.424Z,46.30
2022-11-24T16:56:07.705Z,42.45
2022-11-24T16:58:38.532Z,41.47
2022-11-24T17:01:12.865Z,44.25
2022-11-24T17:03:40.406Z,43.08
2022-11-24T17:06:11.500Z,41.70
2022-11-24T17:08:40.570Z,44.47
2022-11-24T17:11:20.930Z,43.63
2022-11-24T17:13:49.141Z,44.33
2022-11-24T17:16:21.983Z,43.53
2022-11-24T17:18:49.855Z,45.63
2022-11-24T17:21:21.501Z,43.45
2022-11-24T17:23:52.494Z,44.88
2022-11-24T17:26:19.450Z,44.38
2022-11-24T17:28:46.485Z,45.35
2022-11-24T17:31:28.656Z,45.42
2022-11-24T17:33:58.730Z,42.03
2022-11-24T17:36:28.538Z,41.63
2022-11-24T17:38:55.750Z,41.55
2022-11-24T17:41:23.229Z,45.40
2022-11-24T17:43:52.948Z,45.40
2022-11-24T17:46:20.500Z,47.10
2022-11-24T17:48:47.770Z,47.40
2022-11-24T17:51:19.050Z,38.95
2022-11-24T17:53:49.490Z,37.63
2022-11-24T17:56:25.172Z,39.72
2022-11-24T17:58:58.668Z,38.08
2022-11-24T18:01:28.445Z,39.00
2022-11-24T18:03:55.944Z,38.55
2022-11-24T18:06:26.066Z,41.22
2022-11-24T18:08:54.309Z,42.67
2022-11-24T18:11:32.220Z,44.03
2022-11-24T18:14:02.899Z,42.22
2022-11-24T18:16:34.939Z,40.08
2022-11-24T18:19:09.118Z,40.90
2022-11-24T18:21:39.861Z,41.47
2022-11-24T18:24:09.012Z,44.72
2022-11-24T18:26:36.584Z,54.28
2022-11-24T18:29:04.318Z,51.03
2022-11-24T18:31:32.306Z,48.33
2022-11-24T18:34:00.059Z,46.97
2022-11-24T18:36:30.608Z,45.47
2022-11-24T18:39:05.973Z,45.25
2022-11-24T18:41:33.840Z,47.53
2022-11-24T18:44:03.114Z,47.00
2022-11-24T18:46:30.410Z,45.90
2022-11-24T18:48:57.343Z,44.45
2022-11-24T18:51:24.417Z,42.08
2022-11-24T18:53:54.642Z,41.13
2022-11-24T18:56:21.657Z,40.15
2022-11-24T18:58:54.539Z,40.92
2022-11-24T19:04:14.357Z,38.25
2022-11-24T19:06:44.939Z,39.42
2022-11-24T19:09:21.518Z,40.80
2022-11-24T19:11:49.451Z,42.40
2022-11-24T19:14:19.093Z,42.00
2022-11-24T19:16:50.175Z,40.35
2022-11-24T19:19:17.551Z,40.95
2022-11-24T19:21:45.089Z,42.45
2022-11-24T19:24:15.413Z,42.28
2022-11-24T19:26:42.485Z,43.58
2022-11-24T19:29:09.630Z,43.75
2022-11-24T19:31:40.883Z,44.15
2022-11-24T19:34:08.309Z,42.75
2022-11-24T19:36:36.283Z,42.88
2022-11-24T19:39:04.944Z,44.03
2022-11-24T19:41:33.589Z,44.00
2022-11-24T19:44:00.961Z,41.72
2022-11-24T19:46:30.183Z,43.15
2022-11-24T19:49:01.253Z,41.33
2022-11-24T19:51:32.859Z,42.00
2022-11-24T19:54:01.213Z,40.60
2022-11-24T19:56:32.056Z,42.00
2022-11-24T19:58:59.205Z,43.03
2022-11-24T20:01:30.079Z,44.20
2022-11-24T20:04:01.410Z,42.17
2022-11-24T20:06:33.031Z,42.05
2022-11-24T20:09:01.255Z,42.70
2022-11-24T20:11:29.690Z,42.83
2022-11-24T20:13:57.873Z,42.60
2022-11-24T20:16:31.981Z,43.92
2022-11-24T20:19:08.563Z,43.45
2022-11-24T20:21:37.362Z,43.45
2022-11-24T20:24:13.806Z,44.63
2022-11-24T20:26:48.863Z,44.03
2022-11-24T20:29:18.900Z,43.15
2022-11-24T20:31:53.091Z,45.33
2022-11-24T20:34:22.005Z,54.45
2022-11-24T20:36:49.649Z,56.50
2022-11-24T20:39:25.480Z,52.00
2022-11-24T20:41:54.488Z,47.45
2022-11-24T20:44:24.924Z,44.42
2022-11-24T20:46:58.180Z,49.90
2022-11-24T20:49:26.960Z,47.22
2022-11-24T20:51:55.080Z,55.63
2022-11-24T20:54:22.530Z,50.35
2022-11-24T20:56:49.883Z,50.60
2022-11-24T20:59:22.869Z,50.65
2022-11-24T21:04:22.815Z,53.78
2022-11-24T21:06:50.500Z,53.70
2022-11-24T21:09:18.469Z,53.63
2022-11-24T21:11:45.966Z,55.90
2022-11-24T21:14:13.379Z,52.95
2022-11-24T21:16:42.456Z,54.05
2022-11-24T21:19:17.178Z,52.88
2022-11-24T21:21:44.433Z,50.50
2022-11-24T21:24:17.479Z,48.53
2022-11-24T21:29:22.336Z,44.13
2022-11-24T21:31:49.934Z,46.13
2022-11-24T21:34:18.943Z,46.08
2022-11-24T21:36:49.300Z,45.85
2022-11-24T21:39:16.650Z,44.92
2022-11-24T21:41:44.476Z,45.55
2022-11-24T21:44:14.087Z,49.38
2022-11-24T21:46:48.182Z,45.75
2022-11-24T21:49:18.229Z,49.75
2022-11-24T21:51:45.983Z,49.25
2022-11-24T21:54:12.893Z,47.08
2022-11-24T21:56:39.885Z,46.08
2022-11-24T21:59:06.859Z,48.78
2022-11-24T22:01:33.902Z,48.97
2022-11-24T22:04:00.865Z,48.70
2022-11-24T22:06:27.835Z,49.03
2022-11-24T22:08:55.620Z,51.10
2022-11-24T22:11:25.357Z,49.20
2022-11-24T22:13:54.425Z,46.58
2022-11-24T22:16:25.863Z,49.78
2022-11-24T22:18:53.924Z,48.95
2022-11-24T22:21:24.178Z,47.78
2022-11-24T22:23:52.730Z,45.90
2022-11-24T22:26:24.418Z,46.22
2022-11-24T22:28:53.324Z,50.72
2022-11-24T22:31:23.646Z,49.20
2022-11-24T22:33:52.135Z,47.30
2022-11-24T22:36:21.780Z,56.65
2022-11-24T22:38:58.532Z,48.28
2022-11-24T22:41:26.039Z,50.80
2022-11-24T22:43:54.056Z,43.85
2022-11-24T22:46:24.399Z,44.38
2022-11-24T22:48:53.218Z,44.53
2022-11-24T22:51:26.909Z,41.65
2022-11-24T22:53:57.395Z,43.40
2022-11-24T22:56:25.280Z,43.42
2022-11-24T22:58:52.243Z,43.40
2022-11-24T23:01:22.420Z,44.42
2022-11-24T23:03:50.787Z,45.03
2022-11-24T23:06:21.782Z,47.03
2022-11-24T23:08:50.124Z,44.13
2022-11-24T23:11:34.938Z,46.15
2022-11-24T23:14:04.516Z,47.50
2022-11-24T23:28:59.327Z,47.75
2022-11-24T23:31:28.890Z,44.70
2022-11-24T23:34:02.315Z,44.45
2022-11-24T23:36:30.873Z,43.50
2022-11-24T23:39:03.746Z,41.42
2022-11-24T23:41:31.967Z,40.67
2022-11-24T23:43:59.048Z,39.60
2022-11-24T23:46:27.766Z,40.50
2022-11-24T23:48:59.109Z,39.35
2022-11-24T23:51:29.946Z,40.42
2022-11-24T23:54:00.679Z,41.47
2022-11-24T23:56:33.118Z,41.17
2022-11-24T23:59:02.808Z,43.05
